createdAt,value
2022-10-14T00:04:55.624Z,9.63
2022-10-14T00:11:01.515Z,8.20
2022-10-14T00:17:11.586Z,11.55
2022-10-14T00:23:22.803Z,8.73
2022-10-14T00:29:26.375Z,8.50
2022-10-14T00:35:32.117Z,10.55
2022-10-14T00:41:37.441Z,10.82
2022-10-14T00:47:41.261Z,9.65
2022-10-14T00:53:45.288Z,9.82
2022-10-14T00:59:50.300Z,8.80
2022-10-14T01:05:55.731Z,10.15
2022-10-14T01:12:26.819Z,5.85
2022-10-14T01:18:35.462Z,8.80
2022-10-14T01:24:56.263Z,7.45
2022-10-14T01:31:03.802Z,10.38
2022-10-14T01:37:09.864Z,6.28
2022-10-14T01:43:14.437Z,7.43
2022-10-14T01:49:23.432Z,8.77
2022-10-14T01:55:29.118Z,10.40
2022-10-14T02:01:34.956Z,10.63
2022-10-14T02:07:41.816Z,7.70
2022-10-14T02:13:50.572Z,10.90
2022-10-14T02:19:57.343Z,10.32
2022-10-14T02:26:03.270Z,12.38
2022-10-14T02:32:08.361Z,13.23
2022-10-14T02:38:11.763Z,13.82
2022-10-14T02:44:16.822Z,12.95
2022-10-14T02:50:25.956Z,9.95
2022-10-14T02:56:30.728Z,15.52
2022-10-14T03:02:37.308Z,13.57
2022-10-14T03:08:46.426Z,13.50
2022-10-14T03:14:56.536Z,12.20
2022-10-14T03:21:01.305Z,11.55
2022-10-14T03:27:04.719Z,11.65
2022-10-14T03:33:08.552Z,13.77
2022-10-14T03:39:14.601Z,9.20
2022-10-14T03:45:18.002Z,8.75
2022-10-14T03:51:21.395Z,8.70
2022-10-14T03:57:26.205Z,11.82
2022-10-14T04:03:29.714Z,10.13
2022-10-14T04:09:33.211Z,11.38
2022-10-14T04:15:38.329Z,11.02
2022-10-14T04:21:41.701Z,12.60
2022-10-14T04:27:45.038Z,13.75
2022-10-14T04:33:49.863Z,16.95
2022-10-14T04:39:53.197Z,15.75
2022-10-14T04:45:56.810Z,14.40
2022-10-14T04:52:01.610Z,15.82
2022-10-14T04:58:05.023Z,13.82
2022-10-14T05:04:08.381Z,13.15
2022-10-14T05:10:13.260Z,13.63
2022-10-14T05:16:16.679Z,14.13
2022-10-14T05:22:20.303Z,15.88
2022-10-14T05:28:25.314Z,14.93
2022-10-14T05:34:28.658Z,15.35
2022-10-14T05:40:31.990Z,13.13
2022-10-14T05:46:36.821Z,17.88
2022-10-14T05:52:40.892Z,12.25
2022-10-14T05:58:44.318Z,16.98
2022-10-14T06:04:49.482Z,11.95
2022-10-14T06:10:52.926Z,9.70
2022-10-14T06:16:56.272Z,14.32
2022-10-14T06:23:02.280Z,12.27
2022-10-14T06:29:06.524Z,11.30
2022-10-14T06:35:10.354Z,8.70
2022-10-14T06:41:15.042Z,8.93
2022-10-14T06:47:18.477Z,9.15
2022-10-14T06:53:22.070Z,10.02
2022-10-14T06:59:28.498Z,8.60
2022-10-14T07:05:31.951Z,7.88
2022-10-14T07:11:35.540Z,10.52
2022-10-14T07:17:40.314Z,6.80
2022-10-14T07:23:44.002Z,9.55
2022-10-14T07:29:47.359Z,6.80
2022-10-14T07:35:52.188Z,5.72
2022-10-14T07:41:55.533Z,8.15
2022-10-14T07:55:11.958Z,8.85
2022-10-14T08:01:19.018Z,8.88
2022-10-14T08:07:23.056Z,6.50
2022-10-14T08:13:28.056Z,5.30
2022-10-14T08:19:31.399Z,9.75
2022-10-14T08:25:34.803Z,5.82
2022-10-14T08:31:39.528Z,6.15
2022-10-14T08:37:43.216Z,6.60
2022-10-14T08:43:50.550Z,10.05
2022-10-14T08:50:01.558Z,7.43
2022-10-14T08:56:05.041Z,10.15
2022-10-14T09:02:16.406Z,10.20
2022-10-14T09:08:27.781Z,9.60
2022-10-14T09:14:33.861Z,11.77
2022-10-14T09:20:37.261Z,10.20
2022-10-14T09:26:43.221Z,16.15
2022-10-14T10:02:00.586Z,14.13
2022-10-14T10:22:59.727Z,8.93
2022-10-14T10:29:39.530Z,14.30
2022-10-14T10:43:19.094Z,9.20
2022-10-14T10:57:06.969Z,12.57
2022-10-14T11:03:48.321Z,12.82
2022-10-14T11:17:14.780Z,9.60
2022-10-14T11:23:35.277Z,9.88
2022-10-14T11:30:20.520Z,8.48
2022-10-14T11:36:32.908Z,9.57
2022-10-14T11:42:59.890Z,7.20
2022-10-14T11:49:07.853Z,13.13
2022-10-14T11:55:16.373Z,7.35
2022-10-14T12:01:28.033Z,8.85
2022-10-14T12:07:35.825Z,7.18
2022-10-14T12:13:44.859Z,13.15
2022-10-14T12:19:52.105Z,7.25
2022-10-14T12:26:05.018Z,12.38
2022-10-14T12:32:10.876Z,9.32
2022-10-14T12:38:21.873Z,11.13
2022-10-14T12:44:43.238Z,9.50
2022-10-14T12:51:27.945Z,8.15
2022-10-14T12:57:42.364Z,8.20
2022-10-14T13:04:00.054Z,5.47
2022-10-14T13:10:27.580Z,5.32
2022-10-14T13:17:04.279Z,5.68
2022-10-14T13:30:18.960Z,5.72
2022-10-14T13:36:25.582Z,9.27
2022-10-14T13:42:45.776Z,7.25
2022-10-14T13:48:52.667Z,4.32
2022-10-14T14:01:32.396Z,13.38
2022-10-14T14:08:21.645Z,14.88
2022-10-14T14:14:06.226Z,12.35
2022-10-14T14:20:12.194Z,14.85
2022-10-14T14:26:22.825Z,10.98
2022-10-14T14:38:56.221Z,14.93
2022-10-14T14:45:03.141Z,6.45
2022-10-14T14:51:06.767Z,11.65
2022-10-14T14:57:10.925Z,7.97
2022-10-14T15:03:15.725Z,6.50
2022-10-14T15:09:25.440Z,7.35
2022-10-14T15:15:31.048Z,5.05
2022-10-14T15:21:36.598Z,9.00
2022-10-14T15:27:46.770Z,8.88
2022-10-14T15:33:50.774Z,6.68
2022-10-14T15:40:05.242Z,11.63
2022-10-14T15:46:32.444Z,7.25
2022-10-14T15:52:36.384Z,12.15
2022-10-14T15:58:59.654Z,10.13
2022-10-14T16:05:31.305Z,6.60
2022-10-14T16:11:41.237Z,13.73
2022-10-14T16:17:48.767Z,12.13
2022-10-14T16:23:59.768Z,8.63
2022-10-14T16:30:04.782Z,12.40
2022-10-14T16:36:12.957Z,13.70
2022-10-14T16:48:34.406Z,16.80
2022-10-14T16:54:43.601Z,19.13
2022-10-14T17:00:47.928Z,16.13
2022-10-14T17:06:56.262Z,12.05
2022-10-14T17:13:03.538Z,15.68
2022-10-14T17:19:07.784Z,14.93
2022-10-14T17:25:12.728Z,14.65
2022-10-14T17:31:27.949Z,15.38
2022-10-14T17:37:48.091Z,16.00
2022-10-14T17:44:03.350Z,14.18
2022-10-14T17:50:11.208Z,15.82
2022-10-14T17:56:16.425Z,15.98
2022-10-14T18:02:20.523Z,18.85
2022-10-14T18:08:26.266Z,20.20
2022-10-14T18:14:30.628Z,16.75
2022-10-14T18:20:43.261Z,16.63
2022-10-14T18:26:54.284Z,16.25
2022-10-14T18:32:59.938Z,14.35
2022-10-14T18:39:05.091Z,17.45
2022-10-14T18:45:10.383Z,17.02
2022-10-14T18:51:14.407Z,20.58
2022-10-14T18:57:18.647Z,18.92
2022-10-14T19:03:23.605Z,23.48
2022-10-14T19:09:29.765Z,23.83
2022-10-14T19:15:45.091Z,23.42
2022-10-14T19:21:54.268Z,26.65
2022-10-14T19:27:57.919Z,27.88
2022-10-14T19:34:02.379Z,26.75
2022-10-14T19:40:07.931Z,28.77
2022-10-14T19:46:12.533Z,25.40
2022-10-14T19:52:15.915Z,23.42
2022-10-14T19:58:20.803Z,23.30
2022-10-14T20:04:26.676Z,27.55
2022-10-14T20:10:30.940Z,23.92
2022-10-14T20:16:36.283Z,25.85
2022-10-14T20:22:40.067Z,20.95
2022-10-14T20:28:44.095Z,23.38
2022-10-14T20:34:49.049Z,20.38
2022-10-14T20:40:52.612Z,15.38
2022-10-14T20:46:56.241Z,17.75
2022-10-14T20:53:04.913Z,18.02
2022-10-14T20:59:09.350Z,17.10
2022-10-14T21:05:12.747Z,15.70
2022-10-14T21:11:20.026Z,16.67
2022-10-14T21:17:23.641Z,15.02
2022-10-14T21:23:27.312Z,14.20
2022-10-14T21:29:32.015Z,14.07
2022-10-14T21:35:36.093Z,14.05
2022-10-14T21:41:40.148Z,12.90
2022-10-14T21:47:45.150Z,12.80
2022-10-14T21:53:48.790Z,11.60
2022-10-14T21:59:52.169Z,12.05
2022-10-14T22:06:00.217Z,11.07
2022-10-14T22:12:04.056Z,11.57
2022-10-14T22:18:07.549Z,9.40
2022-10-14T22:24:12.568Z,10.02
2022-10-14T22:30:16.691Z,9.73
2022-10-14T22:36:23.777Z,10.27
2022-10-14T22:48:32.866Z,10.57
2022-10-14T22:54:36.505Z,11.73
2022-10-14T23:00:41.228Z,12.48
2022-10-14T23:06:49.242Z,10.85
2022-10-14T23:12:55.898Z,15.10
2022-10-14T23:19:00.801Z,13.25
2022-10-14T23:25:04.329Z,11.32
2022-10-14T23:31:14.108Z,14.88
2022-10-14T23:37:18.882Z,12.40
2022-10-14T23:43:22.272Z,12.32
2022-10-14T23:49:26.480Z,12.98
2022-10-14T23:55:31.746Z,10.85
